Aeroporto :
LOGIN :

Iscrizione | Disclaimer

   EN    FR    IT 

 










Sommario :    VFR   VFR Marginale   IFR   IFR Intensivo   IFR Molto Intensivo
Visibilità : 
Base nubi : 
>= 8 km
>= 3000ft
5 / 8 km
1000 / 3000 ft
1500m / 5 km
500 / 1000 ft
800 / 1500m
200 / 500 ft
< 800m
< 200 ft
Simboli :   Temporali  Nebbia  Neve Forte  Precipitazioni Forti  Vento > 20 kt
SIGMETs :   Varie  Temporali  Ghiacco  Turbolenza  Onda orograficha  Ceneri Vulcaniche






- Altitudine del aeroporto : 228 ft
- Codice IATA : OPO


LPPR - Porto Fr. Sa Carneiro

ULTIMO METAR :
  • 230100Z 31010KT 9999 FEW018 SCT030 BKN048 12/09 Q0999

METARs OBSOLETI :
  • 230030Z 31012KT 9999 FEW018 FEW025CB BKN038 12/09 Q0999
  • 230000Z 32010KT 290V350 9999 FEW012 FEW025CB BKN038 12/07 Q0998
  • 222330Z 31011G21KT 280V340 9999 FEW018 SCT038 13/08 Q0998
  • 222300Z 32015KT 9999 FEW018 SCT043 12/08 Q0997

TAF TAF LPPR
Valido dal 23 a 00 ore il 24 a 00 ore UTC


222300Z 2300/2324 31012KT 9999 SCT030
TEMPO 2300/2312 8000 SHRA BKN018 FEW025CB
TEMPO 2300/2306 31015G25KT
BECMG 2305/2308 33008KT
BECMG 2318/2321 VRB03KT FEW015



MetMap, La meteo Aeronautica in un colpo d'occhio ! - Copyright ORBIFLY Dicembre 2007 - Disclaimer

ORBIFLY MET'MAP TEAM :

Programmazione e sviluppo : Alexandra Zaïnal
Concezione e sviluppo : Baudouin d'Aumeries
Co-Programmazione e sviluppo : Marc-Olivier Méhu
Supporto tecnico e logistico : Manuel Goepfert
Aiuto per la traduzione : Arnaldo La Scala

Contatto : metmap@orbifly.com




FONTI E CREDITI :

   NOAA